createdAt,value
2023-02-12T00:01:11.176Z,24.90
2023-02-12T00:03:39.814Z,28.33
2023-02-12T00:06:09.119Z,27.07
2023-02-12T00:08:37.577Z,28.13
2023-02-12T00:11:13.766Z,26.27
2023-02-12T00:13:41.926Z,26.67
2023-02-12T00:16:11.882Z,28.67
2023-02-12T00:18:39.231Z,25.80
2023-02-12T00:21:08.803Z,28.47
2023-02-12T00:23:37.596Z,28.13
2023-02-12T00:26:09.830Z,28.13
2023-02-12T00:28:39.223Z,24.53
2023-02-12T00:31:15.640Z,25.83
2023-02-12T00:33:43.302Z,25.87
2023-02-12T00:36:14.873Z,28.33
2023-02-12T00:38:42.868Z,27.03
2023-02-12T00:41:11.405Z,24.70
2023-02-12T00:43:38.817Z,25.07
2023-02-12T00:46:08.001Z,26.50
2023-02-12T00:48:36.964Z,23.03
2023-02-12T00:51:04.786Z,26.47
2023-02-12T00:53:32.931Z,25.17
2023-02-12T00:56:01.091Z,25.73
2023-02-12T00:58:28.770Z,25.27
2023-02-12T01:00:56.196Z,26.97
2023-02-12T01:03:24.397Z,26.93
2023-02-12T01:05:54.936Z,25.33
2023-02-12T01:08:22.668Z,25.30
2023-02-12T01:10:59.831Z,29.50
2023-02-12T01:13:30.466Z,25.50
2023-02-12T01:16:15.377Z,26.57
2023-02-12T01:18:43.595Z,25.73
2023-02-12T01:21:17.377Z,30.57
2023-02-12T01:23:45.818Z,27.33
2023-02-12T01:26:15.520Z,30.40
2023-02-12T01:28:44.572Z,30.77
2023-02-12T01:31:17.899Z,32.70
2023-02-12T01:33:49.220Z,28.77
2023-02-12T01:36:16.981Z,34.73
2023-02-12T01:38:44.765Z,31.70
2023-02-12T01:41:15.689Z,28.83
2023-02-12T01:43:43.904Z,28.10
2023-02-12T01:46:14.661Z,36.77
2023-02-12T01:48:45.066Z,33.40
2023-02-12T01:51:16.095Z,33.27
2023-02-12T01:53:51.177Z,32.83
2023-02-12T01:56:19.208Z,32.07
2023-02-12T01:58:48.294Z,33.87
2023-02-12T02:01:21.929Z,35.07
2023-02-12T02:03:53.844Z,33.23
2023-02-12T02:06:27.680Z,30.43
2023-02-12T02:08:56.694Z,34.50
2023-02-12T02:11:42.689Z,30.17
2023-02-12T02:14:28.510Z,34.43
2023-02-12T02:17:29.564Z,33.00
2023-02-12T02:20:34.462Z,27.20
2023-02-12T02:23:13.641Z,32.33
2023-02-12T02:25:53.846Z,33.63
2023-02-12T02:28:52.152Z,28.90
2023-02-12T02:31:33.182Z,30.80
2023-02-12T02:34:29.038Z,32.60
2023-02-12T02:37:31.334Z,32.40
2023-02-12T02:40:02.207Z,31.47
2023-02-12T02:42:36.977Z,33.20
2023-02-12T02:45:12.627Z,33.47
2023-02-12T02:47:45.239Z,34.17
2023-02-12T02:50:16.817Z,34.03
2023-02-12T02:52:52.466Z,33.90
2023-02-12T02:55:22.107Z,32.37
2023-02-12T02:57:57.754Z,32.57
2023-02-12T03:00:44.688Z,29.77
2023-02-12T03:03:23.802Z,32.90
2023-02-12T03:05:55.280Z,33.83
2023-02-12T03:08:42.645Z,34.17
2023-02-12T03:11:16.189Z,33.67
2023-02-12T03:13:49.530Z,36.53
2023-02-12T03:16:29.226Z,33.40
2023-02-12T03:19:06.183Z,36.43
2023-02-12T03:21:42.597Z,39.13
2023-02-12T03:24:15.914Z,41.10
2023-02-12T03:26:55.826Z,39.90
2023-02-12T03:29:23.185Z,38.90
2023-02-12T03:32:03.958Z,38.43
2023-02-12T03:34:37.102Z,38.17
2023-02-12T03:37:25.417Z,38.47
2023-02-12T03:40:17.226Z,40.27
2023-02-12T03:42:44.574Z,37.30
2023-02-12T03:45:45.375Z,38.43
2023-02-12T03:48:23.047Z,38.40
2023-02-12T03:50:54.100Z,38.57
2023-02-12T03:53:21.518Z,35.53
2023-02-12T03:55:55.767Z,33.37
2023-02-12T03:58:27.954Z,35.70
2023-02-12T04:00:55.941Z,41.10
2023-02-12T04:03:23.372Z,38.63
2023-02-12T04:05:50.745Z,35.47
2023-02-12T04:08:18.037Z,36.57
2023-02-12T04:11:14.409Z,34.27
2023-02-12T04:14:01.798Z,40.63
2023-02-12T04:16:38.119Z,42.80
2023-02-12T04:19:07.708Z,42.20
2023-02-12T04:21:57.633Z,40.40
2023-02-12T04:24:32.907Z,42.60
2023-02-12T04:27:12.589Z,39.37
2023-02-12T04:29:52.613Z,45.13
2023-02-12T04:32:39.790Z,41.20
2023-02-12T04:35:15.279Z,43.73
2023-02-12T04:37:56.475Z,38.47
2023-02-12T04:40:23.956Z,40.27
2023-02-12T04:42:53.410Z,43.10
2023-02-12T04:45:24.639Z,38.70
2023-02-12T04:47:52.421Z,45.37
2023-02-12T04:50:20.159Z,46.47
2023-02-12T04:52:47.917Z,44.00
2023-02-12T04:55:15.446Z,41.67
2023-02-12T04:57:43.053Z,48.43
2023-02-12T05:00:13.705Z,44.47
2023-02-12T05:02:41.266Z,43.23
2023-02-12T05:05:08.724Z,41.87
2023-02-12T05:07:36.700Z,44.70
2023-02-12T05:10:04.395Z,44.70
2023-02-12T05:12:31.813Z,46.93
2023-02-12T05:14:59.095Z,44.80
2023-02-12T05:17:26.469Z,42.87
2023-02-12T05:19:53.737Z,44.50
2023-02-12T05:22:21.290Z,41.80
2023-02-12T05:24:48.756Z,39.97
2023-02-12T05:27:16.140Z,42.80
2023-02-12T05:29:43.448Z,40.73
2023-02-12T05:32:10.855Z,39.17
2023-02-12T05:34:38.552Z,39.07
2023-02-12T05:37:06.066Z,36.50
2023-02-12T05:39:33.493Z,39.60
2023-02-12T05:42:01.125Z,40.10
2023-02-12T05:44:28.561Z,39.00
2023-02-12T05:46:56.041Z,38.03
2023-02-12T05:49:23.584Z,39.20
2023-02-12T05:51:51.021Z,37.87
2023-02-12T05:54:18.361Z,34.33
2023-02-12T05:56:47.869Z,39.37
2023-02-12T05:59:22.058Z,36.53
2023-02-12T06:01:51.163Z,33.23
2023-02-12T06:04:24.125Z,33.90
2023-02-12T06:06:55.860Z,30.07
2023-02-12T06:09:24.064Z,34.47
2023-02-12T06:11:51.751Z,33.53
2023-02-12T06:14:21.247Z,32.20
2023-02-12T06:16:51.107Z,32.20
2023-02-12T06:19:19.380Z,29.80
2023-02-12T06:21:47.030Z,35.87
2023-02-12T06:24:15.757Z,30.37
2023-02-12T06:26:44.011Z,25.07
2023-02-12T06:29:13.136Z,30.23
2023-02-12T06:31:40.958Z,28.30
2023-02-12T06:34:10.411Z,29.27
2023-02-12T06:36:39.522Z,28.37
2023-02-12T06:39:07.176Z,26.23
2023-02-12T06:41:34.860Z,22.77
2023-02-12T06:44:02.173Z,26.13
2023-02-12T06:46:29.605Z,27.20
2023-02-12T06:48:59.359Z,23.90
2023-02-12T06:51:28.945Z,24.50
2023-02-12T06:53:56.638Z,26.10
2023-02-12T06:56:25.638Z,23.03
2023-02-12T06:58:58.041Z,25.80
2023-02-12T07:01:27.610Z,24.67
2023-02-12T07:03:58.161Z,22.17
2023-02-12T07:06:27.084Z,21.30
2023-02-12T07:08:55.753Z,22.97
2023-02-12T07:11:28.231Z,25.20
2023-02-12T07:13:56.085Z,23.43
2023-02-12T07:16:24.397Z,23.33
2023-02-12T07:18:51.712Z,21.83
2023-02-12T07:21:19.786Z,24.80
2023-02-12T07:23:51.860Z,23.47
2023-02-12T07:26:20.971Z,22.60
2023-02-12T07:28:48.825Z,22.70
2023-02-12T07:31:22.051Z,25.67
2023-02-12T07:33:54.000Z,24.07
2023-02-12T07:36:22.004Z,22.07
2023-02-12T07:38:49.358Z,21.67
2023-02-12T07:41:26.062Z,22.80
2023-02-12T07:43:56.209Z,23.10
2023-02-12T07:46:35.570Z,21.83
2023-02-12T07:49:05.624Z,21.87
2023-02-12T07:51:34.477Z,24.60
2023-02-12T07:54:02.914Z,22.50
2023-02-12T07:56:33.544Z,22.10
2023-02-12T07:59:04.712Z,24.03
2023-02-12T08:01:41.025Z,24.13
2023-02-12T08:04:10.868Z,21.77
2023-02-12T08:06:40.845Z,20.47
2023-02-12T08:09:11.473Z,22.10
2023-02-12T08:11:39.903Z,22.20
2023-02-12T08:14:08.182Z,24.23
2023-02-12T08:16:38.406Z,23.60
2023-02-12T08:19:17.596Z,27.60
2023-02-12T08:21:53.298Z,27.47
2023-02-12T08:24:22.154Z,26.57
2023-02-12T08:26:50.192Z,25.30
2023-02-12T08:29:21.302Z,27.03
2023-02-12T08:31:50.918Z,28.57
2023-02-12T08:34:23.584Z,24.30
2023-02-12T08:36:53.932Z,26.13
2023-02-12T08:39:22.514Z,25.77
2023-02-12T08:41:50.266Z,26.10
2023-02-12T08:44:18.365Z,27.33
2023-02-12T08:46:48.684Z,26.80
2023-02-12T08:49:21.982Z,27.27
2023-02-12T08:51:52.097Z,26.73
2023-02-12T08:54:21.832Z,27.70
2023-02-12T08:56:49.616Z,26.40
2023-02-12T08:59:17.841Z,28.00
2023-02-12T09:01:45.445Z,26.07
2023-02-12T09:04:19.075Z,26.00
2023-02-12T09:06:46.954Z,25.37
2023-02-12T09:09:15.354Z,24.50
2023-02-12T09:11:43.436Z,28.83
2023-02-12T09:14:13.455Z,26.33
2023-02-12T09:16:41.437Z,27.63
2023-02-12T09:19:11.372Z,29.80
2023-02-12T09:21:38.824Z,27.80
2023-02-12T09:24:06.610Z,29.13
2023-02-12T09:26:34.068Z,30.30
2023-02-12T09:29:03.720Z,28.27
2023-02-12T09:31:32.243Z,27.20
2023-02-12T09:34:02.730Z,26.87
2023-02-12T09:36:30.908Z,27.70
2023-02-12T09:38:59.528Z,25.47
2023-02-12T09:42:05.600Z,27.13
2023-02-12T09:44:54.520Z,27.53
2023-02-12T09:47:44.278Z,26.07
2023-02-12T09:50:53.163Z,23.47
2023-02-12T09:53:26.078Z,26.47
2023-02-12T09:55:54.738Z,25.13
2023-02-12T09:58:29.304Z,24.43
2023-02-12T10:00:57.029Z,26.43
2023-02-12T10:03:27.882Z,24.43
2023-02-12T10:06:17.835Z,25.53
2023-02-12T10:09:13.186Z,27.80
2023-02-12T10:11:48.597Z,24.20
2023-02-12T10:14:46.594Z,24.57
2023-02-12T10:17:14.157Z,24.47
2023-02-12T10:20:07.795Z,25.88
2023-02-12T10:22:56.357Z,24.53
2023-02-12T10:25:35.722Z,25.65
2023-02-12T10:28:12.811Z,25.38
2023-02-12T10:30:49.946Z,24.48
2023-02-12T10:33:24.306Z,23.33
2023-02-12T10:36:00.964Z,23.35
2023-02-12T10:38:33.495Z,24.40
2023-02-12T10:41:02.144Z,22.83
2023-02-12T10:43:30.547Z,21.15
2023-02-12T10:45:58.649Z,20.58
2023-02-12T10:48:36.969Z,18.85
2023-02-12T10:51:20.401Z,21.17
2023-02-12T10:53:48.675Z,21.20
2023-02-12T10:56:19.980Z,23.08
2023-02-12T10:58:52.512Z,22.05
2023-02-12T11:01:36.891Z,21.77
2023-02-12T11:04:23.380Z,20.27
2023-02-12T11:07:00.884Z,22.33
2023-02-12T11:09:36.386Z,21.92
2023-02-12T11:12:04.090Z,23.25
2023-02-12T11:14:31.814Z,20.23
2023-02-12T11:17:02.502Z,21.70
2023-02-12T11:19:31.484Z,23.00
2023-02-12T11:22:14.482Z,21.10
2023-02-12T11:24:42.024Z,21.60
2023-02-12T11:27:16.488Z,22.85
2023-02-12T11:29:48.712Z,21.88
2023-02-12T11:32:19.070Z,23.92
2023-02-12T11:35:13.540Z,21.08
2023-02-12T11:37:45.905Z,21.77
2023-02-12T11:40:26.514Z,22.58
2023-02-12T11:43:07.428Z,23.08
2023-02-12T11:45:52.549Z,22.73
2023-02-12T11:48:25.879Z,23.80
2023-02-12T11:50:57.927Z,22.27
2023-02-12T11:53:30.645Z,21.40
2023-02-12T11:56:05.406Z,22.00
2023-02-12T11:58:33.108Z,23.33
2023-02-12T12:01:32.610Z,23.13
2023-02-12T12:04:12.198Z,22.67
2023-02-12T12:06:59.962Z,23.27
2023-02-12T12:09:43.111Z,22.27
2023-02-12T12:12:30.021Z,22.08
2023-02-12T12:15:53.949Z,21.00
2023-02-12T12:19:15.133Z,19.58
2023-02-12T12:21:50.565Z,20.38
2023-02-12T12:24:24.088Z,21.90
2023-02-12T12:27:03.528Z,19.92
2023-02-12T12:29:51.355Z,20.70
2023-02-12T12:32:21.343Z,17.88
2023-02-12T12:34:48.728Z,19.42
2023-02-12T12:37:28.801Z,17.58
2023-02-12T12:40:18.055Z,17.05
2023-02-12T12:43:11.290Z,16.67
2023-02-12T12:46:03.198Z,17.90
2023-02-12T12:49:07.724Z,15.82
2023-02-12T12:51:58.875Z,16.73
2023-02-12T12:54:55.528Z,17.02
2023-02-12T12:57:31.700Z,14.65
2023-02-12T13:00:06.569Z,15.10
2023-02-12T13:03:06.820Z,16.17
2023-02-12T13:05:53.870Z,14.50
2023-02-12T13:08:58.443Z,16.23
2023-02-12T13:11:37.505Z,17.52
2023-02-12T13:14:24.352Z,16.27
2023-02-12T13:17:05.047Z,16.83
2023-02-12T13:19:42.997Z,15.48
2023-02-12T13:22:26.674Z,14.85
2023-02-12T13:25:18.398Z,14.63
2023-02-12T13:27:48.177Z,16.02
2023-02-12T13:30:27.413Z,16.38
2023-02-12T13:33:12.886Z,14.70
2023-02-12T13:35:45.843Z,15.45
2023-02-12T13:38:23.095Z,13.43
2023-02-12T13:40:58.684Z,13.75
2023-02-12T13:43:52.015Z,14.43
2023-02-12T13:46:55.592Z,12.05
2023-02-12T13:49:47.951Z,13.70
2023-02-12T13:52:32.399Z,12.95
2023-02-12T13:55:13.961Z,13.00
2023-02-12T13:57:41.382Z,12.30
2023-02-12T14:00:48.954Z,12.82
2023-02-12T14:03:16.884Z,12.80
2023-02-12T14:05:44.678Z,12.25
2023-02-12T14:08:35.425Z,9.88
2023-02-12T14:11:08.650Z,9.60
2023-02-12T14:13:48.860Z,10.20
2023-02-12T14:16:31.719Z,10.45
2023-02-12T14:19:36.999Z,10.65
2023-02-12T14:22:28.780Z,11.27
2023-02-12T14:24:57.723Z,12.38
2023-02-12T14:27:41.971Z,12.80
2023-02-12T14:30:10.629Z,12.73
2023-02-12T14:32:58.390Z,13.05
2023-02-12T14:35:33.724Z,13.75
2023-02-12T14:38:36.862Z,14.40
2023-02-12T14:41:41.787Z,14.95
2023-02-12T14:44:18.558Z,12.50
2023-02-12T14:47:06.781Z,12.30
2023-02-12T14:49:48.423Z,13.18
2023-02-12T14:52:22.531Z,14.13
2023-02-12T14:54:56.412Z,12.93
2023-02-12T14:57:35.011Z,12.95
2023-02-12T15:00:18.051Z,12.88
2023-02-12T15:02:53.719Z,12.50
2023-02-12T15:05:32.546Z,12.38
2023-02-12T15:08:08.532Z,11.15
2023-02-12T15:10:43.014Z,12.10
2023-02-12T15:13:13.722Z,11.10
2023-02-12T15:15:52.282Z,11.93
2023-02-12T15:18:58.393Z,10.65
2023-02-12T15:21:29.323Z,9.90
2023-02-12T15:24:11.447Z,10.60
2023-02-12T15:26:48.984Z,12.45
2023-02-12T15:29:27.532Z,9.95
2023-02-12T15:31:58.371Z,10.98
2023-02-12T15:34:30.378Z,9.20
2023-02-12T15:37:00.000Z,10.10
2023-02-12T15:39:28.777Z,9.73
2023-02-12T15:41:56.389Z,10.38
2023-02-12T15:44:29.941Z,10.85
2023-02-12T15:47:12.538Z,10.00
2023-02-12T15:49:42.364Z,9.52
2023-02-12T15:52:18.354Z,9.38
2023-02-12T15:54:47.250Z,9.23
2023-02-12T15:57:22.964Z,9.55
2023-02-12T15:59:56.113Z,9.20
2023-02-12T16:02:29.926Z,9.38
2023-02-12T16:04:58.445Z,7.70
2023-02-12T16:07:29.442Z,9.75
2023-02-12T16:09:57.488Z,8.30
2023-02-12T16:12:30.490Z,10.25
2023-02-12T16:15:00.597Z,10.05
2023-02-12T16:17:35.481Z,11.52
2023-02-12T16:20:19.115Z,12.75
2023-02-12T16:22:49.073Z,12.50
2023-02-12T16:25:24.599Z,12.63
2023-02-12T16:28:15.774Z,11.48
2023-02-12T16:30:45.121Z,11.02
2023-02-12T16:33:53.389Z,14.23
2023-02-12T16:36:21.445Z,12.23
2023-02-12T16:38:53.296Z,13.57
2023-02-12T16:41:21.079Z,11.88
2023-02-12T16:43:52.347Z,12.88
2023-02-12T16:46:20.154Z,13.30
2023-02-12T16:48:52.448Z,14.05
2023-02-12T16:51:26.546Z,14.52
2023-02-12T16:53:57.846Z,13.65
2023-02-12T16:56:29.714Z,14.95
2023-02-12T16:58:59.226Z,13.73
2023-02-12T17:01:30.096Z,13.77
2023-02-12T17:03:59.218Z,14.63
2023-02-12T17:06:29.390Z,12.20
2023-02-12T17:08:57.913Z,12.93
2023-02-12T17:11:27.652Z,13.18
2023-02-12T17:13:56.864Z,12.82
2023-02-12T17:16:30.882Z,11.98
2023-02-12T17:19:00.267Z,11.93
2023-02-12T17:21:38.129Z,11.95
2023-02-12T17:24:18.033Z,10.20
2023-02-12T17:26:45.549Z,13.10
2023-02-12T17:29:13.138Z,13.68
2023-02-12T17:31:40.655Z,12.65
2023-02-12T17:34:08.040Z,14.35
2023-02-12T17:36:35.979Z,16.20
2023-02-12T17:39:06.468Z,13.70
2023-02-12T17:41:34.448Z,12.93
2023-02-12T17:44:02.033Z,14.82
2023-02-12T17:46:30.351Z,12.98
2023-02-12T17:48:58.375Z,16.00
2023-02-12T17:51:26.179Z,15.02
2023-02-12T17:53:53.736Z,14.57
2023-02-12T17:56:23.289Z,14.37
2023-02-12T17:58:51.185Z,13.85
2023-02-12T18:01:21.957Z,13.35
2023-02-12T18:03:52.306Z,13.68
2023-02-12T18:06:26.626Z,12.45
2023-02-12T18:08:54.553Z,13.50
2023-02-12T18:11:23.007Z,14.25
2023-02-12T18:13:55.930Z,13.52
2023-02-12T18:16:25.474Z,14.05
2023-02-12T18:18:53.158Z,13.20
2023-02-12T18:21:21.130Z,13.80
2023-02-12T18:23:49.034Z,12.70
2023-02-12T18:26:18.303Z,12.10
2023-02-12T18:28:46.404Z,10.90
2023-02-12T18:31:14.249Z,12.27
2023-02-12T18:33:41.998Z,12.60
2023-02-12T18:36:12.683Z,13.83
2023-02-12T18:38:41.382Z,13.68
2023-02-12T18:41:12.213Z,14.03
2023-02-12T18:43:40.007Z,12.10
2023-02-12T18:46:09.656Z,14.90
2023-02-12T18:48:37.468Z,13.32
2023-02-12T18:51:06.776Z,12.67
2023-02-12T18:53:34.674Z,14.13
2023-02-12T18:56:08.141Z,13.90
2023-02-12T18:58:36.992Z,14.47
2023-02-12T19:01:17.317Z,13.77
2023-02-12T19:03:46.605Z,13.90
2023-02-12T19:06:14.109Z,15.50
2023-02-12T19:08:41.692Z,15.17
2023-02-12T19:11:11.274Z,15.63
2023-02-12T19:13:39.437Z,17.40
2023-02-12T19:16:14.972Z,13.93
2023-02-12T19:18:42.540Z,16.33
2023-02-12T19:21:13.164Z,14.10
2023-02-12T19:23:40.893Z,13.67
2023-02-12T19:26:11.625Z,14.67
2023-02-12T19:28:39.114Z,13.77
2023-02-12T19:31:15.473Z,11.67
2023-02-12T19:33:44.516Z,13.43
2023-02-12T19:36:15.254Z,13.07
2023-02-12T19:38:43.724Z,13.50
2023-02-12T19:41:14.988Z,13.87
2023-02-12T19:43:42.491Z,13.73
2023-02-12T19:46:12.879Z,16.17
2023-02-12T19:48:41.182Z,20.10
2023-02-12T19:51:13.770Z,19.93
2023-02-12T19:53:41.353Z,17.60
2023-02-12T19:56:09.582Z,17.77
2023-02-12T19:58:38.014Z,16.57
2023-02-12T20:01:15.804Z,17.07
2023-02-12T20:03:44.070Z,15.37
2023-02-12T20:06:15.929Z,15.70
2023-02-12T20:08:44.362Z,17.37
2023-02-12T20:11:18.003Z,16.27
2023-02-12T20:13:45.448Z,17.13
2023-02-12T20:16:17.408Z,16.13
2023-02-12T20:18:46.414Z,16.23
2023-02-12T20:21:23.900Z,15.63
2023-02-12T20:23:52.184Z,17.63
2023-02-12T20:26:20.631Z,16.77
2023-02-12T20:28:49.123Z,15.73
2023-02-12T20:31:25.811Z,14.30
2023-02-12T20:33:55.454Z,18.40
2023-02-12T20:36:24.445Z,17.10
2023-02-12T20:38:58.752Z,20.33
2023-02-12T20:41:27.359Z,21.27
2023-02-12T20:43:55.611Z,20.30
2023-02-12T20:46:24.389Z,18.20
2023-02-12T20:48:54.129Z,17.70
2023-02-12T20:51:24.246Z,16.87
2023-02-12T20:53:52.751Z,16.70
2023-02-12T20:56:23.859Z,16.67
2023-02-12T20:58:51.828Z,17.93
2023-02-12T21:01:33.043Z,16.53
2023-02-12T21:04:10.021Z,17.23
2023-02-12T21:06:40.233Z,15.63
2023-02-12T21:09:10.329Z,17.17
2023-02-12T21:11:39.965Z,17.03
2023-02-12T21:14:25.097Z,16.67
2023-02-12T21:16:55.983Z,19.60
2023-02-12T21:19:24.548Z,19.20
2023-02-12T21:21:52.561Z,19.60
2023-02-12T21:24:24.084Z,19.80
2023-02-12T21:26:53.860Z,20.33
2023-02-12T21:29:21.944Z,20.27
2023-02-12T21:31:51.407Z,18.13
2023-02-12T21:34:23.424Z,15.20
2023-02-12T21:36:54.042Z,16.67
2023-02-12T21:39:24.922Z,15.87
2023-02-12T21:42:02.451Z,14.63
2023-02-12T21:44:31.830Z,13.73
2023-02-12T21:46:59.707Z,14.83
2023-02-12T21:49:29.851Z,12.90
2023-02-12T21:52:01.907Z,12.07
2023-02-12T21:54:30.622Z,12.17
2023-02-12T21:56:58.660Z,10.57
2023-02-12T21:59:27.482Z,10.03
2023-02-12T22:01:58.451Z,10.10
2023-02-12T22:04:26.538Z,10.87
2023-02-12T22:06:54.362Z,10.60
2023-02-12T22:09:22.769Z,9.67
2023-02-12T22:11:52.189Z,12.00
2023-02-12T22:14:21.729Z,13.57
2023-02-12T22:16:49.798Z,13.83
2023-02-12T22:19:17.372Z,15.77
2023-02-12T22:21:45.587Z,11.60
2023-02-12T22:24:15.561Z,12.70
2023-02-12T22:26:43.751Z,15.90
2023-02-12T22:29:13.663Z,16.97
2023-02-12T22:31:42.856Z,15.77
2023-02-12T22:34:16.794Z,15.63
2023-02-12T22:36:45.399Z,14.80
2023-02-12T22:39:14.200Z,15.33
2023-02-12T22:41:42.618Z,15.17
2023-02-12T22:44:12.618Z,14.03
2023-02-12T22:46:44.442Z,15.37
2023-02-12T22:49:12.109Z,13.50
2023-02-12T22:51:40.037Z,13.90
2023-02-12T22:54:12.506Z,12.77
2023-02-12T22:56:40.102Z,11.47
2023-02-12T22:59:09.279Z,11.10
2023-02-12T23:01:36.954Z,11.87
2023-02-12T23:04:04.843Z,11.17
2023-02-12T23:06:32.746Z,9.83
2023-02-12T23:09:02.540Z,9.40
2023-02-12T23:11:31.865Z,9.73
2023-02-12T23:14:00.876Z,9.73
2023-02-12T23:16:28.646Z,8.83
2023-02-12T23:18:57.865Z,10.37
2023-02-12T23:21:26.971Z,9.87
2023-02-12T23:23:54.827Z,9.27
2023-02-12T23:26:22.632Z,9.63
2023-02-12T23:28:50.241Z,11.27
2023-02-12T23:31:17.856Z,9.87
2023-02-12T23:33:45.683Z,9.00
2023-02-12T23:36:13.292Z,9.43
2023-02-12T23:38:40.953Z,9.57
2023-02-12T23:41:08.414Z,8.23
2023-02-12T23:43:36.032Z,9.83
2023-02-12T23:46:03.977Z,9.87
2023-02-12T23:48:31.687Z,10.00
2023-02-12T23:50:59.418Z,8.93
2023-02-12T23:53:27.331Z,8.87
2023-02-12T23:55:54.796Z,8.27
2023-02-12T23:58:22.453Z,8.60
